Eastport, Maryland
Current Conditions -  °F | °C
As of 5:54 AM on Wednesday 26 Nov 2014 (Local Time) from KNAK Reporting Station
Light Rain Light Rain  
Wind Chill: 44°   Ceiling: 3800
Heat Index: 44°   Visibility: 5mi
Dew Point: 39°   Wind: 3mph
Humidity: 82%   Direction: 40°NE
Pressure: 30.1"   Gusts: NA
Location:  38.946°N, 76.491°W
Report Text: KNAK 261054Z AUTO 04003KT 5SM -RA BKN038 OVC046 07/04 A3010 RMK AO2 SLP193 P0005 T00670039
Loading
Personal Weather Stations






























Interactive Weather Map New forecast layout! Learn more

10-Day Weather Forecast

Advertisements
Track Severe Weather on mobile